sensor_id;sensor_type;location;lat;lon;timestamp;P1;durP1;ratioP1;P2;durP2;ratioP2
54795;SDS011;40693;43.884;20.340;2023-06-26T00:01:42;18.33;;;14.32;;
54795;SDS011;40693;43.884;20.340;2023-06-26T00:04:08;20.65;;;15.15;;
54795;SDS011;40693;43.884;20.340;2023-06-26T00:06:39;22.48;;;15.50;;
54795;SDS011;40693;43.884;20.340;2023-06-26T00:09:05;19.08;;;14.15;;
54795;SDS011;40693;43.884;20.340;2023-06-26T00:11:31;26.35;;;19.58;;
54795;SDS011;40693;43.884;20.340;2023-06-26T00:13:58;25.35;;;21.15;;
54795;SDS011;40693;43.884;20.340;2023-06-26T00:16:27;26.58;;;18.40;;
54795;SDS011;40693;43.884;20.340;2023-06-26T00:18:53;23.85;;;17.80;;
54795;SDS011;40693;43.884;20.340;2023-06-26T00:21:19;20.65;;;16.02;;
54795;SDS011;40693;43.884;20.340;2023-06-26T00:23:45;24.58;;;17.45;;
54795;SDS011;40693;43.884;20.340;2023-06-26T00:26:11;21.00;;;15.55;;
54795;SDS011;40693;43.884;20.340;2023-06-26T00:28:37;23.58;;;15.65;;
54795;SDS011;40693;43.884;20.340;2023-06-26T00:31:03;18.80;;;15.82;;
54795;SDS011;40693;43.884;20.340;2023-06-26T00:33:29;21.90;;;15.43;;
54795;SDS011;40693;43.884;20.340;2023-06-26T00:35:54;24.05;;;15.35;;
54795;SDS011;40693;43.884;20.340;2023-06-26T00:38:20;21.92;;;16.88;;
54795;SDS011;40693;43.884;20.340;2023-06-26T00:40:46;22.10;;;16.15;;
54795;SDS011;40693;43.884;20.340;2023-06-26T00:43:12;22.85;;;16.88;;
54795;SDS011;40693;43.884;20.340;2023-06-26T00:45:37;23.08;;;15.73;;
54795;SDS011;40693;43.884;20.340;2023-06-26T00:48:03;22.90;;;17.58;;
54795;SDS011;40693;43.884;20.340;2023-06-26T00:50:30;23.70;;;16.58;;
54795;SDS011;40693;43.884;20.340;2023-06-26T00:52:57;24.08;;;18.02;;
54795;SDS011;40693;43.884;20.340;2023-06-26T00:55:26;22.85;;;15.90;;
54795;SDS011;40693;43.884;20.340;2023-06-26T00:57:52;23.80;;;17.58;;
54795;SDS011;40693;43.884;20.340;2023-06-26T01:00:19;23.13;;;16.83;;
54795;SDS011;40693;43.884;20.340;2023-06-26T01:02:45;23.50;;;16.80;;
54795;SDS011;40693;43.884;20.340;2023-06-26T01:05:11;23.80;;;19.20;;
54795;SDS011;40693;43.884;20.340;2023-06-26T01:07:46;27.02;;;19.02;;
54795;SDS011;40693;43.884;20.340;2023-06-26T01:10:13;26.48;;;18.25;;
54795;SDS011;40693;43.884;20.340;2023-06-26T01:12:39;26.35;;;19.42;;
54795;SDS011;40693;43.884;20.340;2023-06-26T01:15:05;25.20;;;18.35;;
54795;SDS011;40693;43.884;20.340;2023-06-26T01:17:31;33.42;;;20.08;;
54795;SDS011;40693;43.884;20.340;2023-06-26T01:20:00;28.65;;;20.50;;
54795;SDS011;40693;43.884;20.340;2023-06-26T01:22:38;28.20;;;21.70;;
54795;SDS011;40693;43.884;20.340;2023-06-26T01:28:04;28.83;;;21.60;;
54795;SDS011;40693;43.884;20.340;2023-06-26T01:30:36;35.10;;;21.73;;
54795;SDS011;40693;43.884;20.340;2023-06-26T01:33:05;27.75;;;21.98;;
54795;SDS011;40693;43.884;20.340;2023-06-26T01:35:30;27.27;;;20.98;;
54795;SDS011;40693;43.884;20.340;2023-06-26T01:38:13;26.58;;;19.65;;
54795;SDS011;40693;43.884;20.340;2023-06-26T01:40:41;25.38;;;19.70;;
54795;SDS011;40693;43.884;20.340;2023-06-26T01:43:12;25.67;;;20.40;;
54795;SDS011;40693;43.884;20.340;2023-06-26T01:46:03;27.95;;;20.00;;
54795;SDS011;40693;43.884;20.340;2023-06-26T01:48:38;28.63;;;21.35;;
54795;SDS011;40693;43.884;20.340;2023-06-26T01:51:10;29.75;;;21.50;;
54795;SDS011;40693;43.884;20.340;2023-06-26T01:53:41;27.75;;;20.35;;
54795;SDS011;40693;43.884;20.340;2023-06-26T01:56:13;27.25;;;20.70;;
54795;SDS011;40693;43.884;20.340;2023-06-26T01:58:41;25.02;;;20.90;;
54795;SDS011;40693;43.884;20.340;2023-06-26T02:01:10;31.85;;;22.95;;
54795;SDS011;40693;43.884;20.340;2023-06-26T02:03:37;30.00;;;21.90;;
54795;SDS011;40693;43.884;20.340;2023-06-26T02:06:03;24.08;;;19.65;;
54795;SDS011;40693;43.884;20.340;2023-06-26T02:08:28;29.38;;;22.25;;
54795;SDS011;40693;43.884;20.340;2023-06-26T02:10:54;28.88;;;21.10;;
54795;SDS011;40693;43.884;20.340;2023-06-26T02:13:20;32.25;;;22.20;;
54795;SDS011;40693;43.884;20.340;2023-06-26T02:15:45;30.40;;;23.75;;
54795;SDS011;40693;43.884;20.340;2023-06-26T02:18:11;27.20;;;21.58;;
54795;SDS011;40693;43.884;20.340;2023-06-26T02:20:37;28.27;;;22.35;;
54795;SDS011;40693;43.884;20.340;2023-06-26T02:23:02;29.35;;;22.60;;
54795;SDS011;40693;43.884;20.340;2023-06-26T02:25:28;28.90;;;22.13;;
54795;SDS011;40693;43.884;20.340;2023-06-26T02:27:54;31.33;;;23.17;;
54795;SDS011;40693;43.884;20.340;2023-06-26T02:30:20;30.65;;;23.73;;
54795;SDS011;40693;43.884;20.340;2023-06-26T02:32:45;30.77;;;22.88;;
54795;SDS011;40693;43.884;20.340;2023-06-26T02:35:11;36.30;;;25.75;;
54795;SDS011;40693;43.884;20.340;2023-06-26T02:37:37;30.15;;;23.65;;
54795;SDS011;40693;43.884;20.340;2023-06-26T02:40:03;30.35;;;23.58;;
54795;SDS011;40693;43.884;20.340;2023-06-26T02:42:31;33.42;;;23.48;;
54795;SDS011;40693;43.884;20.340;2023-06-26T02:44:59;30.40;;;23.45;;
54795;SDS011;40693;43.884;20.340;2023-06-26T02:47:27;33.63;;;24.38;;
54795;SDS011;40693;43.884;20.340;2023-06-26T02:49:53;44.28;;;23.95;;
54795;SDS011;40693;43.884;20.340;2023-06-26T02:52:19;30.02;;;23.02;;
54795;SDS011;40693;43.884;20.340;2023-06-26T02:54:45;29.95;;;23.35;;
54795;SDS011;40693;43.884;20.340;2023-06-26T02:57:10;34.35;;;23.48;;
54795;SDS011;40693;43.884;20.340;2023-06-26T02:59:37;29.67;;;22.88;;
54795;SDS011;40693;43.884;20.340;2023-06-26T03:02:04;29.65;;;22.00;;
54795;SDS011;40693;43.884;20.340;2023-06-26T03:04:30;30.17;;;21.90;;
54795;SDS011;40693;43.884;20.340;2023-06-26T03:06:55;35.00;;;23.42;;
54795;SDS011;40693;43.884;20.340;2023-06-26T03:09:21;30.60;;;23.75;;
54795;SDS011;40693;43.884;20.340;2023-06-26T03:11:47;29.23;;;23.50;;
54795;SDS011;40693;43.884;20.340;2023-06-26T03:14:13;37.90;;;23.60;;
54795;SDS011;40693;43.884;20.340;2023-06-26T03:16:39;33.45;;;24.77;;
54795;SDS011;40693;43.884;20.340;2023-06-26T03:19:05;33.67;;;24.77;;
54795;SDS011;40693;43.884;20.340;2023-06-26T03:21:32;33.40;;;23.30;;
54795;SDS011;40693;43.884;20.340;2023-06-26T03:23:57;32.45;;;24.20;;
54795;SDS011;40693;43.884;20.340;2023-06-26T03:26:24;30.88;;;23.55;;
54795;SDS011;40693;43.884;20.340;2023-06-26T03:28:52;31.15;;;22.30;;
54795;SDS011;40693;43.884;20.340;2023-06-26T03:31:19;31.70;;;23.05;;
54795;SDS011;40693;43.884;20.340;2023-06-26T03:33:52;33.67;;;24.33;;
54795;SDS011;40693;43.884;20.340;2023-06-26T03:36:18;35.95;;;25.73;;
54795;SDS011;40693;43.884;20.340;2023-06-26T03:38:44;33.33;;;22.55;;
54795;SDS011;40693;43.884;20.340;2023-06-26T03:41:09;36.78;;;25.20;;
54795;SDS011;40693;43.884;20.340;2023-06-26T03:43:35;32.00;;;24.30;;
54795;SDS011;40693;43.884;20.340;2023-06-26T03:46:01;35.70;;;24.83;;
54795;SDS011;40693;43.884;20.340;2023-06-26T03:48:27;38.15;;;23.40;;
54795;SDS011;40693;43.884;20.340;2023-06-26T03:50:55;33.78;;;26.13;;
54795;SDS011;40693;43.884;20.340;2023-06-26T03:53:21;35.40;;;25.58;;
54795;SDS011;40693;43.884;20.340;2023-06-26T03:55:47;37.42;;;23.67;;
54795;SDS011;40693;43.884;20.340;2023-06-26T03:58:12;31.05;;;22.98;;
54795;SDS011;40693;43.884;20.340;2023-06-26T04:00:38;36.58;;;25.35;;
54795;SDS011;40693;43.884;20.340;2023-06-26T04:03:05;31.10;;;23.10;;
54795;SDS011;40693;43.884;20.340;2023-06-26T04:05:30;30.80;;;24.23;;
54795;SDS011;40693;43.884;20.340;2023-06-26T04:07:56;36.50;;;24.70;;
54795;SDS011;40693;43.884;20.340;2023-06-26T04:10:22;29.45;;;23.73;;
54795;SDS011;40693;43.884;20.340;2023-06-26T04:12:47;32.83;;;24.25;;
54795;SDS011;40693;43.884;20.340;2023-06-26T04:15:13;31.52;;;24.75;;
54795;SDS011;40693;43.884;20.340;2023-06-26T04:17:39;30.02;;;22.88;;
54795;SDS011;40693;43.884;20.340;2023-06-26T04:20:05;32.53;;;24.52;;
54795;SDS011;40693;43.884;20.340;2023-06-26T04:22:32;27.95;;;20.92;;
54795;SDS011;40693;43.884;20.340;2023-06-26T04:24:58;29.20;;;21.73;;
54795;SDS011;40693;43.884;20.340;2023-06-26T04:27:26;30.35;;;22.13;;
54795;SDS011;40693;43.884;20.340;2023-06-26T04:29:52;31.15;;;24.02;;
54795;SDS011;40693;43.884;20.340;2023-06-26T04:32:18;28.25;;;21.90;;
54795;SDS011;40693;43.884;20.340;2023-06-26T04:34:43;33.08;;;22.70;;
54795;SDS011;40693;43.884;20.340;2023-06-26T04:37:09;36.45;;;22.80;;
54795;SDS011;40693;43.884;20.340;2023-06-26T04:39:35;28.63;;;21.50;;
54795;SDS011;40693;43.884;20.340;2023-06-26T04:42:05;30.10;;;22.42;;
54795;SDS011;40693;43.884;20.340;2023-06-26T04:44:31;27.50;;;22.45;;
54795;SDS011;40693;43.884;20.340;2023-06-26T04:46:57;29.30;;;23.05;;
54795;SDS011;40693;43.884;20.340;2023-06-26T04:49:23;27.85;;;21.10;;
54795;SDS011;40693;43.884;20.340;2023-06-26T04:51:49;32.45;;;23.60;;
54795;SDS011;40693;43.884;20.340;2023-06-26T04:54:16;33.20;;;25.02;;
54795;SDS011;40693;43.884;20.340;2023-06-26T04:56:50;29.77;;;22.92;;
54795;SDS011;40693;43.884;20.340;2023-06-26T04:59:16;29.40;;;22.70;;
54795;SDS011;40693;43.884;20.340;2023-06-26T05:01:42;31.42;;;23.88;;
54795;SDS011;40693;43.884;20.340;2023-06-26T05:04:12;34.25;;;24.98;;
54795;SDS011;40693;43.884;20.340;2023-06-26T05:06:38;29.40;;;22.83;;
54795;SDS011;40693;43.884;20.340;2023-06-26T05:09:04;30.88;;;24.40;;
54795;SDS011;40693;43.884;20.340;2023-06-26T05:11:29;28.52;;;22.60;;
54795;SDS011;40693;43.884;20.340;2023-06-26T05:13:55;30.98;;;24.30;;
54795;SDS011;40693;43.884;20.340;2023-06-26T05:16:27;27.48;;;23.55;;
54795;SDS011;40693;43.884;20.340;2023-06-26T05:18:59;31.35;;;23.77;;
54795;SDS011;40693;43.884;20.340;2023-06-26T05:21:27;30.17;;;24.00;;
54795;SDS011;40693;43.884;20.340;2023-06-26T05:23:54;28.80;;;24.20;;
54795;SDS011;40693;43.884;20.340;2023-06-26T05:26:24;32.42;;;24.70;;
54795;SDS011;40693;43.884;20.340;2023-06-26T05:28:53;33.30;;;24.83;;
54795;SDS011;40693;43.884;20.340;2023-06-26T05:31:20;34.83;;;25.25;;
54795;SDS011;40693;43.884;20.340;2023-06-26T05:33:46;29.42;;;25.10;;
54795;SDS011;40693;43.884;20.340;2023-06-26T05:36:13;29.17;;;23.02;;
54795;SDS011;40693;43.884;20.340;2023-06-26T05:38:42;31.13;;;23.83;;
54795;SDS011;40693;43.884;20.340;2023-06-26T05:41:08;30.02;;;22.52;;
54795;SDS011;40693;43.884;20.340;2023-06-26T05:43:34;29.05;;;20.52;;
54795;SDS011;40693;43.884;20.340;2023-06-26T05:46:00;26.27;;;23.27;;
54795;SDS011;40693;43.884;20.340;2023-06-26T05:48:26;27.50;;;22.25;;
54795;SDS011;40693;43.884;20.340;2023-06-26T05:50:52;25.67;;;20.90;;
54795;SDS011;40693;43.884;20.340;2023-06-26T05:53:18;21.55;;;18.25;;
54795;SDS011;40693;43.884;20.340;2023-06-26T05:55:44;20.88;;;17.38;;
54795;SDS011;40693;43.884;20.340;2023-06-26T05:58:09;21.90;;;18.60;;
54795;SDS011;40693;43.884;20.340;2023-06-26T06:00:36;24.52;;;19.48;;
54795;SDS011;40693;43.884;20.340;2023-06-26T06:03:04;32.70;;;20.50;;
54795;SDS011;40693;43.884;20.340;2023-06-26T06:05:29;23.33;;;20.85;;
54795;SDS011;40693;43.884;20.340;2023-06-26T06:07:55;24.77;;;20.48;;
54795;SDS011;40693;43.884;20.340;2023-06-26T06:10:21;23.45;;;21.10;;
54795;SDS011;40693;43.884;20.340;2023-06-26T06:12:49;25.60;;;20.33;;
54795;SDS011;40693;43.884;20.340;2023-06-26T06:15:15;26.30;;;20.58;;
54795;SDS011;40693;43.884;20.340;2023-06-26T06:17:41;27.88;;;21.08;;
54795;SDS011;40693;43.884;20.340;2023-06-26T06:20:07;24.70;;;20.73;;
54795;SDS011;40693;43.884;20.340;2023-06-26T06:22:33;26.05;;;21.38;;
54795;SDS011;40693;43.884;20.340;2023-06-26T06:24:59;22.00;;;19.58;;
54795;SDS011;40693;43.884;20.340;2023-06-26T06:27:25;23.63;;;20.52;;
54795;SDS011;40693;43.884;20.340;2023-06-26T06:29:52;24.48;;;20.65;;
54795;SDS011;40693;43.884;20.340;2023-06-26T06:32:18;22.52;;;20.10;;
54795;SDS011;40693;43.884;20.340;2023-06-26T06:34:44;24.48;;;19.17;;
54795;SDS011;40693;43.884;20.340;2023-06-26T06:37:09;21.58;;;19.10;;
54795;SDS011;40693;43.884;20.340;2023-06-26T06:39:35;21.42;;;19.13;;
54795;SDS011;40693;43.884;20.340;2023-06-26T06:42:04;22.25;;;19.35;;
54795;SDS011;40693;43.884;20.340;2023-06-26T06:44:30;24.60;;;19.98;;
54795;SDS011;40693;43.884;20.340;2023-06-26T06:46:56;22.35;;;19.08;;
54795;SDS011;40693;43.884;20.340;2023-06-26T06:49:22;23.33;;;19.15;;
54795;SDS011;40693;43.884;20.340;2023-06-26T06:51:48;21.27;;;18.00;;
54795;SDS011;40693;43.884;20.340;2023-06-26T06:54:15;19.42;;;16.50;;
54795;SDS011;40693;43.884;20.340;2023-06-26T06:56:41;19.27;;;15.88;;
54795;SDS011;40693;43.884;20.340;2023-06-26T06:59:07;19.70;;;17.15;;
54795;SDS011;40693;43.884;20.340;2023-06-26T07:01:33;21.50;;;18.65;;
54795;SDS011;40693;43.884;20.340;2023-06-26T07:03:59;19.70;;;17.70;;
54795;SDS011;40693;43.884;20.340;2023-06-26T07:06:25;19.55;;;17.45;;
54795;SDS011;40693;43.884;20.340;2023-06-26T07:08:51;23.10;;;19.67;;
54795;SDS011;40693;43.884;20.340;2023-06-26T07:11:16;23.05;;;18.88;;
54795;SDS011;40693;43.884;20.340;2023-06-26T07:13:42;18.85;;;16.92;;
54795;SDS011;40693;43.884;20.340;2023-06-26T07:16:08;18.88;;;17.00;;
54795;SDS011;40693;43.884;20.340;2023-06-26T07:18:36;20.67;;;17.00;;
54795;SDS011;40693;43.884;20.340;2023-06-26T07:21:03;20.98;;;16.55;;
54795;SDS011;40693;43.884;20.340;2023-06-26T07:23:29;18.63;;;16.63;;
54795;SDS011;40693;43.884;20.340;2023-06-26T07:25:55;20.13;;;15.25;;
54795;SDS011;40693;43.884;20.340;2023-06-26T07:28:21;17.67;;;14.30;;
54795;SDS011;40693;43.884;20.340;2023-06-26T07:30:47;17.38;;;14.75;;
54795;SDS011;40693;43.884;20.340;2023-06-26T07:33:12;17.88;;;15.95;;
54795;SDS011;40693;43.884;20.340;2023-06-26T07:35:38;17.75;;;15.88;;
54795;SDS011;40693;43.884;20.340;2023-06-26T07:38:04;15.63;;;14.02;;
54795;SDS011;40693;43.884;20.340;2023-06-26T07:40:30;17.75;;;15.90;;
54795;SDS011;40693;43.884;20.340;2023-06-26T07:42:56;17.25;;;15.27;;
54795;SDS011;40693;43.884;20.340;2023-06-26T07:45:23;16.55;;;14.85;;
54795;SDS011;40693;43.884;20.340;2023-06-26T07:47:49;18.02;;;15.38;;
54795;SDS011;40693;43.884;20.340;2023-06-26T07:50:14;13.35;;;11.77;;
54795;SDS011;40693;43.884;20.340;2023-06-26T07:52:46;14.57;;;12.80;;
54795;SDS011;40693;43.884;20.340;2023-06-26T07:55:12;12.15;;;10.85;;
54795;SDS011;40693;43.884;20.340;2023-06-26T07:57:38;13.68;;;11.52;;
54795;SDS011;40693;43.884;20.340;2023-06-26T08:00:04;11.02;;;8.20;;
54795;SDS011;40693;43.884;20.340;2023-06-26T08:02:31;8.98;;;8.00;;
54795;SDS011;40693;43.884;20.340;2023-06-26T08:04:57;9.63;;;7.78;;
54795;SDS011;40693;43.884;20.340;2023-06-26T08:07:23;9.80;;;8.23;;
54795;SDS011;40693;43.884;20.340;2023-06-26T08:09:48;11.68;;;9.20;;
54795;SDS011;40693;43.884;20.340;2023-06-26T08:12:14;9.20;;;7.43;;
54795;SDS011;40693;43.884;20.340;2023-06-26T08:14:40;10.10;;;8.10;;
54795;SDS011;40693;43.884;20.340;2023-06-26T08:17:06;9.80;;;7.45;;
54795;SDS011;40693;43.884;20.340;2023-06-26T08:19:32;8.70;;;7.53;;
54795;SDS011;40693;43.884;20.340;2023-06-26T08:21:57;8.70;;;7.53;;
54795;SDS011;40693;43.884;20.340;2023-06-26T08:24:23;10.70;;;8.55;;
54795;SDS011;40693;43.884;20.340;2023-06-26T08:26:49;9.82;;;7.32;;
54795;SDS011;40693;43.884;20.340;2023-06-26T08:29:15;9.80;;;7.28;;
54795;SDS011;40693;43.884;20.340;2023-06-26T08:31:42;9.02;;;6.68;;
54795;SDS011;40693;43.884;20.340;2023-06-26T08:34:09;7.85;;;6.68;;
54795;SDS011;40693;43.884;20.340;2023-06-26T08:36:34;8.27;;;6.70;;
54795;SDS011;40693;43.884;20.340;2023-06-26T08:39:00;9.38;;;6.43;;
54795;SDS011;40693;43.884;20.340;2023-06-26T08:41:27;9.15;;;6.90;;
54795;SDS011;40693;43.884;20.340;2023-06-26T08:43:52;8.52;;;6.20;;
54795;SDS011;40693;43.884;20.340;2023-06-26T08:46:19;10.32;;;6.20;;
54795;SDS011;40693;43.884;20.340;2023-06-26T08:48:47;8.43;;;7.15;;
54795;SDS011;40693;43.884;20.340;2023-06-26T08:51:16;11.52;;;6.30;;
54795;SDS011;40693;43.884;20.340;2023-06-26T08:53:48;11.25;;;7.65;;
54795;SDS011;40693;43.884;20.340;2023-06-26T08:56:16;9.00;;;7.60;;
54795;SDS011;40693;43.884;20.340;2023-06-26T08:58:46;10.73;;;7.75;;
54795;SDS011;40693;43.884;20.340;2023-06-26T09:01:12;8.27;;;6.30;;
54795;SDS011;40693;43.884;20.340;2023-06-26T09:03:38;9.43;;;6.50;;
54795;SDS011;40693;43.884;20.340;2023-06-26T09:06:04;6.75;;;6.00;;
54795;SDS011;40693;43.884;20.340;2023-06-26T09:08:30;10.55;;;5.40;;
54795;SDS011;40693;43.884;20.340;2023-06-26T09:10:55;7.75;;;6.05;;
54795;SDS011;40693;43.884;20.340;2023-06-26T09:13:21;7.63;;;5.78;;
54795;SDS011;40693;43.884;20.340;2023-06-26T09:15:47;8.85;;;6.38;;
54795;SDS011;40693;43.884;20.340;2023-06-26T09:18:13;9.07;;;6.55;;
54795;SDS011;40693;43.884;20.340;2023-06-26T09:20:43;9.70;;;6.32;;
54795;SDS011;40693;43.884;20.340;2023-06-26T09:23:08;7.18;;;5.55;;
54795;SDS011;40693;43.884;20.340;2023-06-26T09:25:37;6.47;;;5.78;;
54795;SDS011;40693;43.884;20.340;2023-06-26T09:28:04;8.15;;;5.30;;
54795;SDS011;40693;43.884;20.340;2023-06-26T09:30:34;5.95;;;5.35;;
54795;SDS011;40693;43.884;20.340;2023-06-26T09:33:13;11.15;;;5.55;;
54795;SDS011;40693;43.884;20.340;2023-06-26T09:35:40;9.23;;;5.80;;
54795;SDS011;40693;43.884;20.340;2023-06-26T09:38:06;7.60;;;6.03;;
54795;SDS011;40693;43.884;20.340;2023-06-26T09:40:32;7.65;;;6.13;;
54795;SDS011;40693;43.884;20.340;2023-06-26T09:43:06;8.20;;;6.72;;
54795;SDS011;40693;43.884;20.340;2023-06-26T09:45:34;12.68;;;6.40;;
54795;SDS011;40693;43.884;20.340;2023-06-26T09:48:03;8.38;;;6.30;;
54795;SDS011;40693;43.884;20.340;2023-06-26T09:50:30;6.50;;;5.80;;
54795;SDS011;40693;43.884;20.340;2023-06-26T09:52:59;9.75;;;5.55;;
54795;SDS011;40693;43.884;20.340;2023-06-26T09:55:36;8.77;;;7.13;;
54795;SDS011;40693;43.884;20.340;2023-06-26T09:58:02;8.05;;;5.57;;
54795;SDS011;40693;43.884;20.340;2023-06-26T10:00:30;8.55;;;5.80;;
54795;SDS011;40693;43.884;20.340;2023-06-26T10:02:56;8.82;;;6.20;;
54795;SDS011;40693;43.884;20.340;2023-06-26T10:05:21;8.38;;;5.57;;
54795;SDS011;40693;43.884;20.340;2023-06-26T10:07:47;6.13;;;4.72;;
54795;SDS011;40693;43.884;20.340;2023-06-26T10:10:15;6.43;;;4.60;;
54795;SDS011;40693;43.884;20.340;2023-06-26T10:12:42;6.93;;;5.50;;
54795;SDS011;40693;43.884;20.340;2023-06-26T10:15:13;6.47;;;5.78;;
54795;SDS011;40693;43.884;20.340;2023-06-26T10:17:42;7.45;;;5.72;;
54795;SDS011;40693;43.884;20.340;2023-06-26T10:20:10;8.27;;;5.30;;
54795;SDS011;40693;43.884;20.340;2023-06-26T10:22:40;6.70;;;5.38;;
54795;SDS011;40693;43.884;20.340;2023-06-26T10:25:09;6.03;;;5.28;;
54795;SDS011;40693;43.884;20.340;2023-06-26T10:27:38;7.18;;;5.55;;
54795;SDS011;40693;43.884;20.340;2023-06-26T10:30:11;13.07;;;6.32;;
54795;SDS011;40693;43.884;20.340;2023-06-26T10:32:41;8.20;;;5.88;;
54795;SDS011;40693;43.884;20.340;2023-06-26T10:35:07;8.30;;;5.57;;
54795;SDS011;40693;43.884;20.340;2023-06-26T10:37:41;6.85;;;5.30;;
54795;SDS011;40693;43.884;20.340;2023-06-26T10:40:12;7.32;;;5.03;;
54795;SDS011;40693;43.884;20.340;2023-06-26T10:42:39;8.15;;;5.63;;
54795;SDS011;40693;43.884;20.340;2023-06-26T10:45:09;8.05;;;5.47;;
54795;SDS011;40693;43.884;20.340;2023-06-26T10:47:49;10.25;;;6.10;;
54795;SDS011;40693;43.884;20.340;2023-06-26T10:50:24;7.32;;;5.78;;
54795;SDS011;40693;43.884;20.340;2023-06-26T10:55:36;8.52;;;5.95;;
54795;SDS011;40693;43.884;20.340;2023-06-26T10:58:16;7.90;;;6.10;;
54795;SDS011;40693;43.884;20.340;2023-06-26T11:03:37;6.97;;;6.28;;
54795;SDS011;40693;43.884;20.340;2023-06-26T11:06:13;6.97;;;6.00;;
54795;SDS011;40693;43.884;20.340;2023-06-26T11:11:19;8.18;;;6.13;;
54795;SDS011;40693;43.884;20.340;2023-06-26T11:13:46;9.13;;;6.70;;
54795;SDS011;40693;43.884;20.340;2023-06-26T11:16:13;7.10;;;6.40;;
54795;SDS011;40693;43.884;20.340;2023-06-26T11:18:40;7.90;;;6.50;;
54795;SDS011;40693;43.884;20.340;2023-06-26T11:21:07;8.40;;;6.72;;
54795;SDS011;40693;43.884;20.340;2023-06-26T11:23:35;7.07;;;6.38;;
54795;SDS011;40693;43.884;20.340;2023-06-26T11:26:17;9.35;;;6.32;;
54795;SDS011;40693;43.884;20.340;2023-06-26T11:28:49;8.48;;;6.20;;
54795;SDS011;40693;43.884;20.340;2023-06-26T11:31:26;10.07;;;6.32;;
54795;SDS011;40693;43.884;20.340;2023-06-26T11:36:50;6.88;;;6.22;;
54795;SDS011;40693;43.884;20.340;2023-06-26T11:39:26;6.40;;;5.78;;
54795;SDS011;40693;43.884;20.340;2023-06-26T11:41:52;6.57;;;5.88;;
54795;SDS011;40693;43.884;20.340;2023-06-26T11:44:18;7.30;;;6.15;;
54795;SDS011;40693;43.884;20.340;2023-06-26T11:46:46;8.55;;;6.22;;
54795;SDS011;40693;43.884;20.340;2023-06-26T11:49:16;6.82;;;5.45;;
54795;SDS011;40693;43.884;20.340;2023-06-26T11:51:41;6.57;;;5.85;;
54795;SDS011;40693;43.884;20.340;2023-06-26T11:54:10;12.70;;;6.72;;
54795;SDS011;40693;43.884;20.340;2023-06-26T11:56:37;11.52;;;6.50;;
54795;SDS011;40693;43.884;20.340;2023-06-26T11:59:06;7.28;;;6.03;;
54795;SDS011;40693;43.884;20.340;2023-06-26T12:01:44;9.18;;;6.53;;
54795;SDS011;40693;43.884;20.340;2023-06-26T12:04:43;7.10;;;5.90;;
54795;SDS011;40693;43.884;20.340;2023-06-26T12:07:09;8.35;;;6.05;;
54795;SDS011;40693;43.884;20.340;2023-06-26T12:09:39;8.20;;;6.47;;
54795;SDS011;40693;43.884;20.340;2023-06-26T12:12:11;11.25;;;7.40;;
54795;SDS011;40693;43.884;20.340;2023-06-26T12:14:39;9.52;;;6.15;;
54795;SDS011;40693;43.884;20.340;2023-06-26T12:17:11;9.25;;;6.65;;
54795;SDS011;40693;43.884;20.340;2023-06-26T12:19:39;7.60;;;6.38;;
54795;SDS011;40693;43.884;20.340;2023-06-26T12:22:09;7.82;;;6.25;;
54795;SDS011;40693;43.884;20.340;2023-06-26T12:27:46;8.45;;;7.65;;
54795;SDS011;40693;43.884;20.340;2023-06-26T12:30:12;7.63;;;6.78;;
54795;SDS011;40693;43.884;20.340;2023-06-26T12:32:58;7.60;;;6.75;;
54795;SDS011;40693;43.884;20.340;2023-06-26T12:35:45;8.57;;;7.53;;
54795;SDS011;40693;43.884;20.340;2023-06-26T12:38:10;8.85;;;7.60;;
54795;SDS011;40693;43.884;20.340;2023-06-26T12:40:49;7.97;;;6.75;;
54795;SDS011;40693;43.884;20.340;2023-06-26T12:43:26;7.82;;;7.07;;
54795;SDS011;40693;43.884;20.340;2023-06-26T12:45:55;8.10;;;6.80;;
54795;SDS011;40693;43.884;20.340;2023-06-26T12:48:39;8.80;;;7.90;;
54795;SDS011;40693;43.884;20.340;2023-06-26T12:51:12;8.68;;;7.70;;
54795;SDS011;40693;43.884;20.340;2023-06-26T12:53:45;8.88;;;7.43;;
54795;SDS011;40693;43.884;20.340;2023-06-26T12:56:11;8.70;;;7.82;;
54795;SDS011;40693;43.884;20.340;2023-06-26T12:58:37;10.02;;;7.80;;
54795;SDS011;40693;43.884;20.340;2023-06-26T13:01:06;12.48;;;7.20;;
54795;SDS011;40693;43.884;20.340;2023-06-26T13:03:39;13.15;;;8.07;;
54795;SDS011;40693;43.884;20.340;2023-06-26T13:06:06;7.90;;;7.10;;
54795;SDS011;40693;43.884;20.340;2023-06-26T13:08:33;10.32;;;6.80;;
54795;SDS011;40693;43.884;20.340;2023-06-26T13:10:59;8.43;;;7.25;;
54795;SDS011;40693;43.884;20.340;2023-06-26T13:13:25;8.85;;;7.07;;
54795;SDS011;40693;43.884;20.340;2023-06-26T13:15:51;11.68;;;7.47;;
54795;SDS011;40693;43.884;20.340;2023-06-26T13:18:16;7.25;;;6.55;;
54795;SDS011;40693;43.884;20.340;2023-06-26T13:20:42;14.15;;;7.00;;
54795;SDS011;40693;43.884;20.340;2023-06-26T13:23:08;10.52;;;7.53;;
54795;SDS011;40693;43.884;20.340;2023-06-26T13:25:34;11.95;;;7.55;;
54795;SDS011;40693;43.884;20.340;2023-06-26T13:28:00;8.48;;;7.65;;
54795;SDS011;40693;43.884;20.340;2023-06-26T13:30:26;11.63;;;7.28;;
54795;SDS011;40693;43.884;20.340;2023-06-26T13:32:51;7.70;;;6.93;;
54795;SDS011;40693;43.884;20.340;2023-06-26T13:35:17;8.93;;;7.63;;
54795;SDS011;40693;43.884;20.340;2023-06-26T13:37:46;8.45;;;7.18;;
54795;SDS011;40693;43.884;20.340;2023-06-26T13:40:12;7.70;;;6.90;;
54795;SDS011;40693;43.884;20.340;2023-06-26T13:42:38;9.90;;;6.72;;
54795;SDS011;40693;43.884;20.340;2023-06-26T13:45:04;8.15;;;6.28;;
54795;SDS011;40693;43.884;20.340;2023-06-26T13:47:34;7.00;;;6.35;;
54795;SDS011;40693;43.884;20.340;2023-06-26T13:50:02;7.25;;;6.55;;
54795;SDS011;40693;43.884;20.340;2023-06-26T13:52:29;6.88;;;6.18;;
54795;SDS011;40693;43.884;20.340;2023-06-26T13:54:55;9.27;;;6.25;;
54795;SDS011;40693;43.884;20.340;2023-06-26T13:57:24;8.40;;;6.80;;
54795;SDS011;40693;43.884;20.340;2023-06-26T13:59:52;7.63;;;6.80;;
54795;SDS011;40693;43.884;20.340;2023-06-26T14:02:18;11.40;;;6.97;;
54795;SDS011;40693;43.884;20.340;2023-06-26T14:04:44;9.48;;;7.13;;
54795;SDS011;40693;43.884;20.340;2023-06-26T14:07:09;10.73;;;7.95;;
54795;SDS011;40693;43.884;20.340;2023-06-26T14:09:35;11.20;;;7.53;;
54795;SDS011;40693;43.884;20.340;2023-06-26T14:12:01;7.38;;;5.70;;
54795;SDS011;40693;43.884;20.340;2023-06-26T14:14:26;7.28;;;6.25;;
54795;SDS011;40693;43.884;20.340;2023-06-26T14:17:00;7.63;;;6.93;;
54795;SDS011;40693;43.884;20.340;2023-06-26T14:19:28;8.50;;;7.45;;
54795;SDS011;40693;43.884;20.340;2023-06-26T14:22:10;12.80;;;7.22;;
54795;SDS011;40693;43.884;20.340;2023-06-26T14:24:36;9.05;;;8.15;;
54795;SDS011;40693;43.884;20.340;2023-06-26T14:27:02;13.13;;;8.43;;
54795;SDS011;40693;43.884;20.340;2023-06-26T14:29:29;10.77;;;8.43;;
54795;SDS011;40693;43.884;20.340;2023-06-26T14:31:55;9.15;;;7.63;;
54795;SDS011;40693;43.884;20.340;2023-06-26T14:34:21;10.40;;;6.97;;
54795;SDS011;40693;43.884;20.340;2023-06-26T14:36:46;7.65;;;5.90;;
54795;SDS011;40693;43.884;20.340;2023-06-26T14:39:12;13.27;;;5.97;;